松山國際航空站 - 塔臺

METAR RCSS 141530Z 09013KT 9999 FEW020 SCT045 20/16 Q1021 NOSIG RMK A3017=

站台狀態:Offline
最後更新:2019-12-14 23:45:02